Time;durP1;ratioP1;P1;durP2;ratioP2;P2;SDS_P1;SDS_P2;PMS_P1;PMS_P2;Temp;Humidity;BMP_temperature;BMP_pressure;BME280_temperature;BME280_humidity;BME280_pressure;Samples;Min_cycle;Max_cycle;Signal;HPM_P1;HPM_P2
2021/11/07 00:04:45;;;;;;;4.15;2.60;;;9.90;81.40;;;;;;5071616;28;20495;-49
2021/11/07 00:07:21;;;;;;;8.27;3.47;;;9.90;82.00;;;;;;5071220;28;20040;-48
2021/11/07 00:09:59;;;;;;;5.45;3.80;;;9.90;82.60;;;;;;5072769;28;20540;-48
2021/11/07 00:12:31;;;;;;;7.65;3.47;;;9.80;83.20;;;;;;5072951;28;20039;-48
2021/11/07 00:14:57;;;;;;;8.02;3.28;;;9.70;83.80;;;;;;5072376;28;20024;-48
2021/11/07 00:17:26;;;;;;;7.95;3.65;;;9.60;84.90;;;;;;5072678;28;20036;-51
2021/11/07 00:19:58;;;;;;;9.73;3.95;;;9.50;85.50;;;;;;5072298;28;20220;-48
2021/11/07 00:22:45;;;;;;;6.53;3.17;;;9.40;86.10;;;;;;5072725;28;20537;-49
2021/11/07 00:27:44;;;;;;;6.57;4.50;;;9.30;87.80;;;;;;5072705;28;20025;-51
2021/11/07 00:37:57;;;;;;;12.60;5.82;;;8.80;91.50;;;;;;5073343;28;20017;-50
2021/11/07 00:53:22;;;;;;;14.90;8.52;;;8.80;93.30;;;;;;5075755;28;20029;-47
2021/11/07 00:58:31;;;;;;;14.05;8.68;;;8.70;93.50;;;;;;5075585;28;20062;-48
2021/11/07 01:01:03;;;;;;;16.40;10.23;;;8.70;93.80;;;;;;5074344;28;20115;-48
2021/11/07 01:03:28;;;;;;;15.13;8.45;;;8.70;93.80;;;;;;5074175;28;20024;-48
2021/11/07 01:05:54;;;;;;;21.80;11.32;;;8.60;94.00;;;;;;5075225;28;20040;-49
2021/11/07 01:08:19;;;;;;;18.90;9.43;;;8.60;94.00;;;;;;5075238;28;20380;-52
2021/11/07 01:10:45;;;;;;;15.40;9.30;;;8.60;94.20;;;;;;5075294;28;20035;-49
2021/11/07 01:13:11;;;;;;;16.50;9.80;;;8.60;94.30;;;;;;5075126;28;20028;-48
2021/11/07 01:15:37;;;;;;;16.45;10.00;;;8.60;94.30;;;;;;5074971;28;20020;-49
2021/11/07 01:18:04;;;;;;;18.20;10.85;;;8.60;94.50;;;;;;5074859;28;20021;-49
2021/11/07 01:20:30;;;;;;;17.00;9.63;;;8.60;94.60;;;;;;5075069;28;20096;-49
2021/11/07 01:25:24;;;;;;;16.23;11.07;;;8.70;94.60;;;;;;5075237;28;20063;-50
2021/11/07 01:27:51;;;;;;;16.70;10.95;;;8.70;94.50;;;;;;5075128;28;20036;-48
2021/11/07 01:30:21;;;;;;;25.23;12.70;;;8.60;94.50;;;;;;5074942;28;20028;-48
2021/11/07 01:32:57;;;;;;;23.00;11.95;;;8.70;94.60;;;;;;5075051;28;20086;-48
2021/11/07 01:35:35;;;;;;;20.55;12.68;;;8.70;94.60;;;;;;5075019;28;20055;-48
2021/11/07 01:40:33;;;;;;;18.80;12.80;;;8.80;94.50;;;;;;5074784;28;20103;-53
2021/11/07 01:42:59;;;;;;;22.70;12.65;;;8.70;94.50;;;;;;5073124;28;20063;-48
2021/11/07 01:45:30;;;;;;;13.15;8.80;;;8.80;94.50;;;;;;5074708;28;20033;-49
2021/11/07 01:48:03;;;;;;;;;;;8.80;94.40;;;;;;5074787;28;20037;-48
2021/11/07 01:50:33;;;;;;;15.77;11.85;;;8.80;94.50;;;;;;5074781;28;20260;-49
2021/11/07 01:53:06;;;;;;;19.88;11.85;;;8.80;94.50;;;;;;5074526;28;20115;-51
2021/11/07 01:55:32;;;;;;;18.92;13.52;;;8.80;94.40;;;;;;5074363;28;20068;-51
2021/11/07 01:57:57;;;;;;;25.25;15.50;;;8.80;94.30;;;;;;5074334;28;20052;-49
2021/11/07 02:00:31;;;;;;;22.65;14.32;;;8.80;94.30;;;;;;5072614;28;20025;-49
2021/11/07 02:02:57;;;;;;;17.38;12.98;;;8.80;94.20;;;;;;5074134;28;20028;-52
2021/11/07 02:05:23;;;;;;;20.65;13.40;;;8.80;94.20;;;;;;5073623;28;20044;-50
2021/11/07 02:07:49;;;;;;;18.23;11.32;;;8.80;94.00;;;;;;5074091;28;20379;-49
2021/11/07 02:10:16;;;;;;;20.23;11.82;;;8.80;94.00;;;;;;5074075;28;20126;-49
2021/11/07 02:12:43;;;;;;;19.17;13.52;;;8.80;94.10;;;;;;5074081;28;20081;-48
2021/11/07 02:15:11;;;;;;;17.10;13.15;;;8.80;94.20;;;;;;5073791;28;20024;-49
2021/11/07 02:17:37;;;;;;;14.73;9.85;;;8.80;93.90;;;;;;5073587;28;20024;-48
2021/11/07 02:20:09;;;;;;;17.42;12.77;;;8.80;94.00;;;;;;5073863;28;20028;-48
2021/11/07 02:22:39;;;;;;;23.05;14.05;;;8.90;94.00;;;;;;5073755;28;20104;-48
2021/11/07 02:25:06;;;;;;;20.30;14.53;;;8.90;94.10;;;;;;5073582;28;20021;-51
2021/11/07 02:27:32;;;;;;;16.75;13.43;;;8.90;94.10;;;;;;5074519;28;20266;-51
2021/11/07 02:29:58;;;;;;;15.57;12.18;;;8.90;93.90;;;;;;5073928;28;20465;-51
2021/11/07 02:32:26;;;;;;;13.70;9.77;;;9.00;93.90;;;;;;5073405;28;20442;-48
2021/11/07 02:34:52;;;;;;;17.60;12.07;;;8.90;93.70;;;;;;5074265;28;20029;-51
2021/11/07 02:37:19;;;;;;;16.25;12.30;;;9.00;93.70;;;;;;5073553;28;20020;-51
2021/11/07 02:39:45;;;;;;;18.02;13.38;;;8.90;93.90;;;;;;5073545;28;20043;-48
2021/11/07 02:42:11;;;;;;;16.95;11.45;;;9.00;93.80;;;;;;5073300;28;20116;-48
2021/11/07 02:44:44;;;;;;;19.52;11.52;;;9.00;93.80;;;;;;5073338;28;20028;-49
2021/11/07 02:47:12;;;;;;;15.43;12.55;;;9.00;93.60;;;;;;5073668;28;20111;-49
2021/11/07 02:49:38;;;;;;;18.20;11.80;;;9.00;93.70;;;;;;5073646;28;20101;-50
2021/11/07 02:52:06;;;;;;;14.43;10.90;;;9.00;93.70;;;;;;5073571;28;20099;-52
2021/11/07 02:54:32;;;;;;;13.60;10.75;;;9.00;93.50;;;;;;5073517;28;20017;-51
2021/11/07 02:57:03;;;;;;;15.98;10.65;;;9.10;93.40;;;;;;5073473;28;20025;-50
2021/11/07 02:59:31;;;;;;;17.33;11.60;;;9.10;93.20;;;;;;5073132;28;20051;-50
2021/11/07 03:01:58;;;;;;;11.70;9.63;;;9.10;93.20;;;;;;5072529;28;20028;-48
2021/11/07 03:04:25;;;;;;;11.43;9.63;;;9.20;93.20;;;;;;5073345;28;20033;-51
2021/11/07 03:06:52;;;;;;;12.68;10.00;;;9.20;93.40;;;;;;5072919;28;20040;-52
2021/11/07 03:09:21;;;;;;;15.23;10.43;;;9.10;93.30;;;;;;5071699;28;20032;-56
2021/11/07 03:11:48;;;;;;;13.53;8.87;;;9.20;93.00;;;;;;5072090;28;20419;-52
2021/11/07 03:14:21;;;;;;;13.93;10.25;;;9.30;92.80;;;;;;5073226;28;20029;-50
2021/11/07 03:16:47;;;;;;;15.13;9.85;;;9.30;92.90;;;;;;5073797;28;20029;-46
2021/11/07 03:19:15;;;;;;;14.73;9.10;;;9.30;92.90;;;;;;5072888;28;20107;-50
2021/11/07 03:21:41;;;;;;;15.48;9.98;;;9.30;93.00;;;;;;5072923;28;20033;-50
2021/11/07 03:24:07;;;;;;;14.90;8.75;;;9.30;92.70;;;;;;5072890;28;20017;-50
2021/11/07 03:26:35;;;;;;;10.38;8.13;;;9.30;92.70;;;;;;5072914;28;20036;-49
2021/11/07 03:29:03;;;;;;;10.70;8.95;;;9.30;92.60;;;;;;5072995;28;20028;-50
2021/11/07 03:31:39;;;;;;;14.80;10.70;;;9.40;92.50;;;;;;5072833;28;20035;-51
2021/11/07 03:34:51;;;;;;;11.65;8.70;;;9.40;92.60;;;;;;5073114;28;20024;-50
2021/11/07 03:36:57;;;;;;;13.23;9.93;;;9.30;92.60;;;;;;5072468;28;20048;-50
2021/11/07 03:39:25;;;;;;;11.52;9.10;;;9.30;92.70;;;;;;5073065;28;20484;-49
2021/11/07 03:41:51;;;;;;;12.90;8.48;;;9.40;92.50;;;;;;5073111;28;20113;-48
2021/11/07 03:44:20;;;;;;;14.70;9.77;;;9.40;92.50;;;;;;5072895;28;20028;-50
2021/11/07 03:46:48;;;;;;;15.60;8.70;;;9.40;92.40;;;;;;5072708;28;20438;-52
2021/11/07 03:49:14;;;;;;;7.25;5.28;;;9.50;92.30;;;;;;5072830;28;20041;-49
2021/11/07 03:51:40;;;;;;;11.70;9.38;;;9.40;92.30;;;;;;5071259;28;20467;-51
2021/11/07 03:54:08;;;;;;;17.52;10.90;;;9.50;92.40;;;;;;5071224;28;20020;-47
2021/11/07 03:56:34;;;;;;;17.63;9.63;;;9.50;92.40;;;;;;5072681;28;20019;-47
2021/11/07 03:58:59;;;;;;;13.18;10.18;;;9.50;92.60;;;;;;5072537;28;20103;-47
2021/11/07 04:01:25;;;;;;;12.65;9.70;;;9.50;92.50;;;;;;5071593;28;20085;-49
2021/11/07 04:03:51;;;;;;;13.27;10.25;;;9.50;92.50;;;;;;5073024;28;20544;-50
2021/11/07 04:06:17;;;;;;;14.02;9.65;;;9.60;92.40;;;;;;5072383;28;20044;-47
2021/11/07 04:08:44;;;;;;;15.30;10.00;;;9.60;92.30;;;;;;5071475;28;20028;-50
2021/11/07 04:11:10;;;;;;;16.00;9.45;;;9.60;92.10;;;;;;5072635;28;20025;-47
2021/11/07 04:13:38;;;;;;;15.40;10.95;;;9.60;92.20;;;;;;5075928;28;20426;-50
2021/11/07 04:16:06;;;;;;;16.92;10.00;;;9.60;92.10;;;;;;5076134;28;20028;-49
2021/11/07 04:18:32;;;;;;;14.10;10.23;;;9.60;92.20;;;;;;5076165;28;20024;-47
2021/11/07 04:20:58;;;;;;;17.45;10.80;;;9.70;92.20;;;;;;5074740;28;20028;-49
2021/11/07 04:23:24;;;;;;;16.02;11.73;;;9.60;92.10;;;;;;5076518;28;20032;-47
2021/11/07 04:25:49;;;;;;;15.13;9.80;;;9.60;92.40;;;;;;5076422;28;20025;-49
2021/11/07 04:28:15;;;;;;;14.70;10.23;;;9.70;92.30;;;;;;5076494;28;20152;-51
2021/11/07 04:30:41;;;;;;;13.70;10.18;;;9.70;92.20;;;;;;5076410;28;20159;-49
2021/11/07 04:33:07;;;;;;;15.38;9.88;;;9.70;92.40;;;;;;5076117;28;20474;-48
2021/11/07 04:35:32;;;;;;;11.27;7.93;;;9.70;92.60;;;;;;5076322;28;20028;-48
2021/11/07 04:37:59;;;;;;;15.95;10.07;;;9.60;92.80;;;;;;5076016;28;20025;-49
2021/11/07 04:40:25;;;;;;;18.38;11.65;;;9.50;93.20;;;;;;5075993;28;20025;-49
2021/11/07 04:42:52;;;;;;;15.98;11.63;;;9.60;93.30;;;;;;5076010;28;20028;-49
2021/11/07 04:45:19;;;;;;;18.30;11.88;;;9.60;93.20;;;;;;5076171;28;20029;-53
2021/11/07 04:47:46;;;;;;;19.25;13.23;;;9.60;93.20;;;;;;5076458;28;20029;-48
2021/11/07 04:50:14;;;;;;;18.67;13.20;;;9.60;93.20;;;;;;5075664;28;20020;-46
2021/11/07 04:52:39;;;;;;;17.40;11.88;;;9.60;93.40;;;;;;5075902;28;20056;-48
2021/11/07 04:55:06;;;;;;;23.25;13.32;;;9.50;93.40;;;;;;5076029;28;20058;-49
2021/11/07 04:57:32;;;;;;;18.05;11.90;;;9.50;93.60;;;;;;5075407;28;20388;-48
2021/11/07 04:59:58;;;;;;;19.30;12.57;;;9.60;93.40;;;;;;5075282;28;20021;-47
2021/11/07 05:02:24;;;;;;;14.77;11.23;;;9.60;93.40;;;;;;5075447;28;20080;-47
2021/11/07 05:04:54;;;;;;;19.40;13.48;;;9.60;93.60;;;;;;5075633;28;20032;-50
2021/11/07 05:07:21;;;;;;;16.52;12.60;;;9.60;93.70;;;;;;5075386;28;20408;-48
2021/11/07 05:09:47;;;;;;;23.88;14.57;;;9.50;93.70;;;;;;5075050;28;20028;-48
2021/11/07 05:12:13;;;;;;;22.48;11.30;;;9.60;93.70;;;;;;5073785;28;20547;-50
2021/11/07 05:14:39;;;;;;;21.85;14.75;;;9.50;93.80;;;;;;5075313;28;20099;-51
2021/11/07 05:17:04;;;;;;;19.25;13.68;;;9.60;93.90;;;;;;5074980;28;20020;-52
2021/11/07 05:19:30;;;;;;;17.52;13.23;;;9.60;93.90;;;;;;5074862;28;20024;-50
2021/11/07 05:21:56;;;;;;;22.63;15.18;;;9.60;93.80;;;;;;5075016;28;20446;-51
2021/11/07 05:24:22;;;;;;;21.33;14.25;;;9.70;93.70;;;;;;5074698;28;20020;-50
2021/11/07 05:26:47;;;;;;;21.70;14.05;;;9.60;93.80;;;;;;5075082;28;20549;-52
2021/11/07 05:29:13;;;;;;;18.20;12.63;;;9.60;93.90;;;;;;5075752;28;20086;-51
2021/11/07 05:31:39;;;;;;;21.40;14.32;;;9.60;93.90;;;;;;5075000;28;20477;-48
2021/11/07 05:34:05;;;;;;;22.00;15.82;;;9.60;93.90;;;;;;5075077;28;20090;-50
2021/11/07 05:36:33;;;;;;;28.00;18.13;;;9.70;93.90;;;;;;5075102;28;20362;-52
2021/11/07 05:38:59;;;;;;;28.65;16.90;;;9.70;93.80;;;;;;5074379;28;20021;-50
2021/11/07 05:41:25;;;;;;;26.25;17.70;;;9.70;93.70;;;;;;5074434;28;20082;-49
2021/11/07 05:43:50;;;;;;;22.13;16.55;;;9.80;93.70;;;;;;5072951;28;20032;-47
2021/11/07 05:46:16;;;;;;;26.67;17.67;;;9.70;93.70;;;;;;5074249;28;20028;-49
2021/11/07 05:48:42;;;;;;;30.25;17.75;;;9.70;93.80;;;;;;5074135;28;20024;-48
2021/11/07 05:51:08;;;;;;;25.38;15.77;;;9.80;93.70;;;;;;5074965;28;20158;-49
2021/11/07 05:53:34;;;;;;;23.63;16.73;;;9.80;93.70;;;;;;5074089;28;20032;-52
2021/11/07 05:56:00;;;;;;;31.77;15.02;;;9.80;93.70;;;;;;5074322;28;20098;-49
2021/11/07 05:58:27;;;;;;;22.83;16.25;;;9.80;93.80;;;;;;5056244;28;20050;-49
2021/11/07 06:00:53;;;;;;;18.33;13.45;;;9.80;93.90;;;;;;5074086;28;20035;-50
2021/11/07 06:03:19;;;;;;;20.55;14.27;;;9.80;94.00;;;;;;5074060;28;20028;-48
2021/11/07 06:05:45;;;;;;;19.33;14.32;;;9.80;94.00;;;;;;5073628;28;20052;-49
2021/11/07 06:08:10;;;;;;;19.00;13.65;;;9.80;94.00;;;;;;5074010;28;20033;-50
2021/11/07 06:10:36;;;;;;;18.45;12.90;;;9.80;94.10;;;;;;5073821;28;20021;-51
2021/11/07 06:13:03;;;;;;;19.17;13.85;;;9.80;94.20;;;;;;5074378;28;20024;-49
2021/11/07 06:15:29;;;;;;;18.58;13.18;;;9.80;94.20;;;;;;5073909;28;20024;-48
2021/11/07 06:17:56;;;;;;;20.70;15.55;;;9.80;94.20;;;;;;5073551;28;20460;-51
2021/11/07 06:20:21;;;;;;;20.90;14.05;;;9.80;94.30;;;;;;5073674;28;20035;-49
2021/11/07 06:22:48;;;;;;;18.65;16.02;;;9.80;94.20;;;;;;5073583;28;20107;-47
2021/11/07 06:25:14;;;;;;;25.55;18.05;;;9.90;94.10;;;;;;5073598;28;20024;-47
2021/11/07 06:27:41;;;;;;;30.33;18.92;;;9.90;93.90;;;;;;5073585;28;20384;-49
2021/11/07 06:30:08;;;;;;;30.08;20.50;;;10.00;93.60;;;;;;5073628;28;20044;-47
2021/11/07 06:32:34;;;;;;;23.92;19.08;;;10.00;93.40;;;;;;5073350;28;20404;-48
2021/11/07 06:35:00;;;;;;;23.70;17.17;;;10.00;93.20;;;;;;5072927;28;20031;-48
2021/11/07 06:37:25;;;;;;;32.08;18.90;;;10.10;92.90;;;;;;5073056;28;20032;-48
2021/11/07 06:39:51;;;;;;;29.30;18.58;;;10.10;93.00;;;;;;5073495;28;20024;-51
2021/11/07 06:42:17;;;;;;;22.98;14.98;;;10.10;92.80;;;;;;5073398;28;20052;-49
2021/11/07 06:44:42;;;;;;;25.73;16.83;;;10.10;92.50;;;;;;5073525;28;20039;-52
2021/11/07 06:47:09;;;;;;;22.15;14.63;;;10.20;92.40;;;;;;5073306;28;20025;-38
2021/11/07 06:49:36;;;;;;;21.10;13.32;;;10.10;92.40;;;;;;5073353;28;20078;-36
2021/11/07 06:52:01;;;;;;;25.25;14.63;;;10.10;92.50;;;;;;5073144;28;20032;-36
2021/11/07 06:54:27;;;;;;;24.30;15.52;;;10.10;92.60;;;;;;5072226;28;20388;-36
2021/11/07 06:56:53;;;;;;;20.60;12.50;;;10.10;92.70;;;;;;5072057;28;20024;-38
2021/11/07 06:59:20;;;;;;;22.17;13.25;;;10.10;92.80;;;;;;5073392;28;20090;-36
2021/11/07 07:01:46;;;;;;;26.88;13.85;;;10.10;92.80;;;;;;5072270;28;20074;-36
2021/11/07 07:04:11;;;;;;;20.02;13.35;;;10.10;92.90;;;;;;5073391;28;20024;-36
2021/11/07 07:06:38;;;;;;;15.73;11.68;;;10.10;92.80;;;;;;5072973;28;20052;-36
2021/11/07 07:09:08;;;;;;;21.02;11.77;;;10.00;92.70;;;;;;5073320;28;20521;-36
2021/11/07 07:11:46;;;;;;;15.63;10.35;;;10.00;93.00;;;;;;5073120;28;20146;-36
2021/11/07 07:14:27;;;;;;;20.58;11.38;;;10.10;92.70;;;;;;5072547;28;20032;-36
2021/11/07 07:22:26;;;;;;;26.83;10.80;;;10.10;92.20;;;;;;5073199;28;20503;-36
2021/11/07 07:33:01;;;;;;;14.05;8.27;;;10.20;91.50;;;;;;5072853;28;20461;-39
2021/11/07 07:35:27;;;;;;;19.02;7.72;;;10.30;91.20;;;;;;5073135;28;20024;-37
2021/11/07 07:37:57;;;;;;;10.30;7.78;;;10.30;90.80;;;;;;5073362;28;20025;-37
2021/11/07 07:40:24;;;;;;;15.98;8.48;;;10.30;90.60;;;;;;5073402;28;20036;-37
2021/11/07 07:42:51;;;;;;;14.35;7.85;;;10.30;90.70;;;;;;5072449;28;20036;-40
2021/11/07 07:45:17;;;;;;;16.17;8.95;;;10.30;90.60;;;;;;5073267;28;20050;-37
2021/11/07 07:47:44;;;;;;;16.70;8.10;;;10.30;90.70;;;;;;5075331;28;20028;-37
2021/11/07 07:50:12;;;;;;;13.85;8.35;;;10.40;90.50;;;;;;5077060;28;20157;-38
2021/11/07 07:52:39;;;;;;;15.20;8.90;;;10.40;90.40;;;;;;5077236;28;20522;-38
2021/11/07 07:55:08;;;;;;;19.23;9.82;;;10.40;90.50;;;;;;5076717;28;20017;-38
2021/11/07 07:57:34;;;;;;;19.73;9.93;;;10.40;90.80;;;;;;5077177;28;20030;-38
2021/11/07 08:00:00;;;;;;;21.80;10.48;;;10.40;90.90;;;;;;5076574;28;20020;-38
2021/11/07 08:02:25;;;;;;;18.85;9.65;;;10.40;91.20;;;;;;5075119;28;20357;-37
2021/11/07 08:04:52;;;;;;;24.40;10.48;;;10.40;91.40;;;;;;5076418;28;20048;-37
2021/11/07 08:07:18;;;;;;;22.10;10.85;;;10.40;91.00;;;;;;5076237;28;20492;-37
2021/11/07 08:09:43;;;;;;;16.60;9.25;;;10.40;91.00;;;;;;5075394;28;20104;-37
2021/11/07 08:12:09;;;;;;;22.00;12.35;;;10.40;91.30;;;;;;5076502;28;20029;-36
2021/11/07 08:14:35;;;;;;;21.42;11.65;;;10.40;91.10;;;;;;5076412;28;20051;-36
2021/11/07 08:17:02;;;;;;;18.70;11.07;;;10.40;91.10;;;;;;5076426;28;20419;-36
2021/11/07 08:19:27;;;;;;;21.48;12.43;;;10.50;90.90;;;;;;5076289;28;20024;-37
2021/11/07 08:21:53;;;;;;;25.30;12.88;;;10.60;90.70;;;;;;5076136;28;20491;-37
2021/11/07 08:24:20;;;;;;;23.77;12.02;;;10.60;90.80;;;;;;5074694;28;20025;-37
2021/11/07 08:26:47;;;;;;;28.52;12.65;;;10.70;90.60;;;;;;5076174;28;20031;-37
2021/11/07 08:29:14;;;;;;;21.00;11.50;;;10.70;90.10;;;;;;5076069;28;20021;-37
2021/11/07 08:31:42;;;;;;;23.83;11.73;;;10.70;90.30;;;;;;5075950;28;20017;-38
2021/11/07 08:34:08;;;;;;;24.20;10.05;;;10.70;89.80;;;;;;5074595;28;20471;-37
2021/11/07 08:39:22;;;;;;;19.40;11.63;;;10.80;89.50;;;;;;5075888;28;20133;-41
2021/11/07 08:41:59;;;;;;;27.90;12.50;;;10.80;89.20;;;;;;5075990;28;20488;-37
2021/11/07 09:00:58;;;;;;;24.23;9.65;;;11.20;87.70;;;;;;5075881;28;20124;-37
2021/11/07 09:03:31;;;;;;;21.55;10.13;;;11.00;88.20;;;;;;5075820;28;20032;-38
2021/11/07 09:08:41;;;;;;;20.10;10.32;;;11.00;88.40;;;;;;5076098;28;20109;-38
2021/11/07 09:11:13;;;;;;;21.88;9.73;;;11.10;88.10;;;;;;5075791;28;20460;-37
2021/11/07 09:13:39;;;;;;;19.45;10.73;;;11.00;87.80;;;;;;5075935;28;20032;-39
2021/11/07 09:16:07;;;;;;;16.63;8.63;;;11.00;87.60;;;;;;5075783;28;20021;-38
2021/11/07 09:18:33;;;;;;;26.10;9.43;;;11.00;87.00;;;;;;5075702;28;20025;-39
2021/11/07 09:23:39;;;;;;;16.80;8.00;;;11.00;84.90;;;;;;5075964;28;20028;-37
2021/11/07 09:28:39;;;;;;;18.08;6.43;;;11.10;84.70;;;;;;5075501;28;20036;-37
2021/11/07 09:31:30;;;;;;;20.90;6.57;;;11.10;84.80;;;;;;5075564;28;20051;-37
2021/11/07 09:36:37;;;;;;;23.40;8.23;;;11.20;84.70;;;;;;5075096;28;20013;-37
2021/11/07 09:41:54;;;;;;;27.50;6.00;;;11.30;83.40;;;;;;5075052;28;20063;-37
2021/11/07 09:44:22;;;;;;;17.00;5.97;;;11.50;83.00;;;;;;5075309;28;20483;-38
2021/11/07 09:46:55;;;;;;;27.85;7.22;;;11.60;82.00;;;;;;5075083;28;20104;-38
2021/11/07 09:49:30;;;;;;;24.45;8.02;;;11.50;81.90;;;;;;5073717;28;20388;-38
2021/11/07 09:52:09;;;;;;;19.90;4.88;;;11.40;81.00;;;;;;5074289;28;20434;-38
2021/11/07 09:54:36;;;;;;;20.50;5.30;;;11.40;80.50;;;;;;5074890;28;20094;-37
2021/11/07 09:57:03;;;;;;;17.55;4.93;;;11.70;77.50;;;;;;5074992;28;20020;-38
2021/11/07 09:59:30;;;;;;;20.27;4.70;;;11.90;77.80;;;;;;5074901;28;20024;-38
2021/11/07 10:02:03;;;;;;;19.95;4.75;;;12.00;77.40;;;;;;5074657;28;20111;-38
2021/11/07 10:04:36;;;;;;;19.98;4.40;;;12.10;75.30;;;;;;5074718;28;20123;-38
2021/11/07 10:07:22;;;;;;;18.30;3.13;;;12.00;75.80;;;;;;5074148;28;20144;-37
2021/11/07 10:09:54;;;;;;;19.13;4.38;;;12.00;75.10;;;;;;5074099;28;20020;-37
2021/11/07 10:12:35;;;;;;;15.00;3.97;;;11.80;74.60;;;;;;5073182;28;20036;-38
2021/11/07 10:15:04;;;;;;;;;;;11.70;74.00;;;;;;5074877;28;20078;-38
2021/11/07 10:17:53;;;;;;;17.17;3.05;;;11.70;73.70;;;;;;5073594;28;19920;-38
2021/11/07 10:20:30;;;;;;;20.48;3.67;;;11.80;73.20;;;;;;5072867;28;20021;-38
2021/11/07 10:23:11;;;;;;;14.82;3.78;;;11.90;73.50;;;;;;5074838;28;20504;-38
2021/11/07 10:25:47;;;;;;;19.75;4.15;;;12.00;73.10;;;;;;5074887;28;20465;-37
2021/11/07 10:28:23;;;;;;;23.60;4.00;;;11.80;72.90;;;;;;5074570;28;20040;-38
2021/11/07 10:31:09;;;;;;;18.45;3.58;;;11.80;72.70;;;;;;5072050;28;20028;-38
2021/11/07 10:34:10;;;;;;;18.30;3.13;;;11.80;73.50;;;;;;5074026;28;20051;-38
2021/11/07 10:53:29;;;;;;;13.98;3.35;;;11.80;72.70;;;;;;5073701;28;20499;-37
2021/11/07 10:56:03;;;;;;;21.65;4.40;;;12.00;71.90;;;;;;5073897;28;20074;-37
2021/11/07 10:58:35;;;;;;;20.60;3.88;;;11.80;72.20;;;;;;5073789;28;20032;-44
2021/11/07 11:01:05;;;;;;;15.10;3.05;;;12.00;72.50;;;;;;5071967;28;20032;-37
2021/11/07 11:03:31;;;;;;;18.20;5.85;;;11.90;72.40;;;;;;5073544;28;20047;-37
2021/11/07 11:06:15;;;;;;;20.35;3.38;;;11.90;72.30;;;;;;5073151;28;20119;-39
2021/11/07 11:08:52;;;;;;;19.67;3.42;;;11.70;72.20;;;;;;5073176;28;20529;-38
2021/11/07 11:25:17;;;;;;;19.00;3.38;;;12.40;70.30;;;;;;5073269;28;20066;-38
2021/11/07 11:33:10;;;;;;;14.13;3.42;;;12.70;68.20;;;;;;5073088;28;20016;-37
2021/11/07 11:35:42;;;;;;;15.23;3.33;;;12.60;67.30;;;;;;5072784;28;20048;-38
2021/11/07 11:38:16;;;;;;;11.02;2.60;;;12.30;67.40;;;;;;5072915;28;20025;-37
2021/11/07 11:43:19;;;;;;;11.70;3.45;;;12.30;67.30;;;;;;5072950;28;20017;-38
2021/11/07 11:45:53;;;;;;;9.98;2.65;;;12.30;66.70;;;;;;5073155;28;20036;-38
2021/11/07 11:59:58;;;;;;;19.23;3.63;;;12.30;68.20;;;;;;5072220;28;20031;-37
2021/11/07 12:05:02;;;;;;;15.85;2.50;;;12.30;68.00;;;;;;5072451;28;20025;-38
2021/11/07 12:07:34;;;;;;;9.35;3.00;;;12.30;67.60;;;;;;5072671;28;20037;-37
2021/11/07 12:10:10;;;;;;;21.85;3.35;;;12.20;67.60;;;;;;5071634;28;20027;-38
2021/11/07 12:12:47;;;;;;;14.20;2.60;;;12.00;68.80;;;;;;5072855;28;20094;-39
2021/11/07 12:15:24;;;;;;;11.77;3.03;;;11.90;69.10;;;;;;5072269;28;20044;-38
2021/11/07 12:18:05;;;;;;;19.83;3.00;;;11.90;68.90;;;;;;5072164;28;20027;-37
2021/11/07 12:20:36;;;;;;;17.08;3.65;;;12.00;68.50;;;;;;5072730;28;20031;-37
2021/11/07 12:23:27;;;;;;;20.38;3.55;;;12.30;68.10;;;;;;5072370;28;20043;-38
2021/11/07 12:25:55;;;;;;;19.33;2.70;;;12.20;68.20;;;;;;5071064;28;20064;-37
2021/11/07 12:28:42;;;;;;;15.65;3.10;;;12.30;67.80;;;;;;5072161;28;20025;-37
2021/11/07 12:31:08;;;;;;;12.52;2.80;;;12.30;66.90;;;;;;5072377;28;20029;-37
2021/11/07 12:33:56;;;;;;;15.55;2.63;;;12.30;66.80;;;;;;5073857;28;20471;-39
2021/11/07 12:40:31;;;;;;;10.52;2.97;;;12.40;66.60;;;;;;5075469;28;20038;-37
2021/11/07 12:42:26;;;;;;;17.40;2.70;;;12.70;65.60;;;;;;5075590;28;20499;-37
2021/11/07 12:44:54;;;;;;;18.10;4.63;;;12.70;65.70;;;;;;5074049;28;20036;-37
2021/11/07 12:47:27;;;;;;;21.90;3.97;;;12.50;65.30;;;;;;5075105;28;20439;-38
2021/11/07 12:49:58;;;;;;;19.23;3.58;;;12.60;65.20;;;;;;5075313;28;20036;-37
2021/11/07 12:52:24;;;;;;;16.15;2.80;;;12.80;65.40;;;;;;5075456;28;20464;-37
2021/11/07 12:54:50;;;;;;;16.70;4.05;;;12.70;65.60;;;;;;5075455;28;20107;-37
2021/11/07 12:57:17;;;;;;;10.60;2.85;;;12.30;66.60;;;;;;5075078;28;20548;-37
2021/11/07 12:59:50;;;;;;;16.85;5.78;;;12.50;66.30;;;;;;5075099;28;20044;-38
2021/11/07 13:02:28;;;;;;;10.82;3.67;;;12.40;66.10;;;;;;5075375;28;20035;-37
2021/11/07 13:05:01;;;;;;;16.92;3.80;;;12.30;65.30;;;;;;5075128;28;20124;-37
2021/11/07 13:07:31;;;;;;;16.17;3.40;;;12.30;65.90;;;;;;5075063;28;20041;-38
2021/11/07 13:10:01;;;;;;;18.38;4.00;;;12.50;65.90;;;;;;5075093;28;20028;-38
2021/11/07 13:12:34;;;;;;;11.82;2.97;;;12.40;65.90;;;;;;5075280;28;20130;-38
2021/11/07 13:18:45;;;;;;;17.60;3.70;;;12.50;65.00;;;;;;5072805;28;20032;-38
2021/11/07 13:24:15;;;;;;;21.80;4.95;;;12.40;66.50;;;;;;5075039;28;20035;-38
2021/11/07 13:29:37;;;;;;;16.80;3.57;;;12.30;66.90;;;;;;5075628;28;20021;-38
2021/11/07 13:35:13;;;;;;;7.18;2.28;;;12.20;68.00;;;;;;5075126;28;20032;-37
2021/11/07 13:38:05;;;;;;;14.35;3.00;;;12.20;67.00;;;;;;5074808;28;20021;-38
2021/11/07 13:40:36;;;;;;;16.60;3.28;;;12.20;67.50;;;;;;5074816;28;20024;-37
2021/11/07 13:43:03;;;;;;;16.30;5.22;;;12.10;68.50;;;;;;5073337;28;20426;-38
2021/11/07 13:45:32;;;;;;;12.30;3.05;;;12.00;69.00;;;;;;5074822;28;20089;-37
2021/11/07 13:48:00;;;;;;;14.68;2.88;;;11.50;68.90;;;;;;5074303;28;20032;-37
2021/11/07 13:50:29;;;;;;;18.15;2.60;;;11.30;70.60;;;;;;5072725;28;20036;-37
2021/11/07 13:52:55;;;;;;;10.38;2.33;;;11.10;70.70;;;;;;5074392;28;20021;-37
2021/11/07 13:55:27;;;;;;;19.50;4.40;;;10.80;73.00;;;;;;5074112;28;20105;-37
2021/11/07 13:57:53;;;;;;;10.88;3.03;;;10.60;75.00;;;;;;5073986;28;20133;-38
2021/11/07 14:00:23;;;;;;;15.80;3.03;;;10.30;77.70;;;;;;5074102;28;20028;-38
2021/11/07 14:02:54;;;;;;;17.92;3.40;;;10.20;79.60;;;;;;5073824;28;20120;-37
2021/11/07 14:05:21;;;;;;;17.35;3.80;;;9.90;81.10;;;;;;5074067;28;20050;-37
2021/11/07 14:08:03;;;;;;;9.82;2.67;;;9.80;81.90;;;;;;5074257;28;20021;-39
2021/11/07 14:10:32;;;;;;;8.95;2.88;;;10.00;82.50;;;;;;5074104;28;20032;-38
2021/11/07 14:12:58;;;;;;;17.42;4.22;;;10.00;82.50;;;;;;5074186;28;20059;-38
2021/11/07 14:15:34;;;;;;;17.58;3.22;;;9.90;82.40;;;;;;5073973;28;20031;-37
2021/11/07 14:18:24;;;;;;;13.63;4.78;;;9.80;82.60;;;;;;5072678;28;20473;-36
2021/11/07 14:21:00;;;;;;;7.53;2.45;;;9.90;83.10;;;;;;5074349;28;20026;-37
2021/11/07 14:23:58;;;;;;;14.25;3.40;;;10.00;83.40;;;;;;5074353;28;20102;-38
2021/11/07 14:26:25;;;;;;;9.02;2.60;;;10.00;83.70;;;;;;5073624;28;20044;-37
2021/11/07 14:37:12;;;;;;;12.82;3.17;;;9.90;79.90;;;;;;5074185;28;20131;-37
2021/11/07 14:42:16;;;;;;;11.73;2.53;;;9.90;80.90;;;;;;5073694;28;20056;-50
2021/11/07 14:47:59;;;;;;;13.80;3.03;;;9.80;81.60;;;;;;5072650;28;20029;-49
2021/11/07 14:50:42;;;;;;;10.27;2.42;;;9.60;82.50;;;;;;5073313;28;20074;-49
2021/11/07 15:01:56;;;;;;;13.23;2.45;;;9.20;84.50;;;;;;5073241;28;20028;-47
2021/11/07 15:06:37;;;;;;;11.95;2.55;;;9.30;84.30;;;;;;5072953;28;20067;-49
2021/11/07 15:09:12;;;;;;;8.18;2.40;;;9.30;84.50;;;;;;5071582;28;20044;-50
2021/11/07 15:17:06;;;;;;;19.40;2.67;;;9.50;83.40;;;;;;5073054;28;20103;-49
2021/11/07 15:19:47;;;;;;;13.65;2.97;;;9.50;82.90;;;;;;5072976;28;20027;-50
2021/11/07 15:22:22;;;;;;;19.33;2.88;;;9.60;82.80;;;;;;5072741;28;20027;-51
2021/11/07 15:24:53;;;;;;;10.63;2.85;;;9.70;82.70;;;;;;5073059;28;20100;-49
2021/11/07 15:27:28;;;;;;;15.57;3.03;;;9.70;82.70;;;;;;5073293;28;20063;-48
2021/11/07 15:32:26;;;;;;;15.90;4.07;;;9.70;82.30;;;;;;5072880;28;20024;-49
2021/11/07 15:34:52;;;;;;;17.75;3.83;;;9.70;82.60;;;;;;5072898;28;20028;-48
2021/11/07 15:37:27;;;;;;;13.27;4.07;;;9.80;82.40;;;;;;5072651;28;20384;-49
2021/11/07 15:39:56;;;;;;;23.83;4.55;;;9.80;82.30;;;;;;5072745;28;20107;-48
2021/11/07 15:42:28;;;;;;;18.77;3.45;;;9.80;83.00;;;;;;5072629;28;20036;-47
2021/11/07 15:45:04;;;;;;;10.48;3.25;;;9.70;83.60;;;;;;5071324;28;20025;-51
2021/11/07 15:58:33;;;;;;;25.55;5.82;;;8.80;87.00;;;;;;5072857;28;20108;-49
2021/11/07 16:19:04;;;;;;;14.07;3.22;;;8.80;87.80;;;;;;5076384;28;20025;-48
2021/11/07 16:21:31;;;;;;;17.38;3.70;;;8.80;87.50;;;;;;5075774;28;20127;-49